sensor_id;sensor_type;location;lat;lon;timestamp;P1;durP1;ratioP1;P2;durP2;ratioP2
61413;SDS011;47279;52.426;10.488;2023-07-09T00:01:15;1.50;;;1.40;;
61413;SDS011;47279;52.426;10.488;2023-07-09T00:03:42;1.35;;;1.25;;
61413;SDS011;47279;52.426;10.488;2023-07-09T00:06:08;1.50;;;1.40;;
61413;SDS011;47279;52.426;10.488;2023-07-09T00:08:34;1.50;;;1.40;;
61413;SDS011;47279;52.426;10.488;2023-07-09T00:11:00;1.55;;;1.45;;
61413;SDS011;47279;52.426;10.488;2023-07-09T00:13:27;1.42;;;1.33;;
61413;SDS011;47279;52.426;10.488;2023-07-09T00:15:55;1.58;;;1.48;;
61413;SDS011;47279;52.426;10.488;2023-07-09T00:18:23;1.30;;;1.20;;
61413;SDS011;47279;52.426;10.488;2023-07-09T00:20:49;1.33;;;1.23;;
61413;SDS011;47279;52.426;10.488;2023-07-09T00:23:15;1.45;;;1.35;;
61413;SDS011;47279;52.426;10.488;2023-07-09T00:25:41;1.70;;;1.60;;
61413;SDS011;47279;52.426;10.488;2023-07-09T00:28:12;1.45;;;1.30;;
61413;SDS011;47279;52.426;10.488;2023-07-09T00:30:39;1.40;;;1.30;;
61413;SDS011;47279;52.426;10.488;2023-07-09T00:33:06;1.30;;;1.20;;
61413;SDS011;47279;52.426;10.488;2023-07-09T00:35:34;1.80;;;1.40;;
61413;SDS011;47279;52.426;10.488;2023-07-09T00:38:00;1.60;;;1.50;;
61413;SDS011;47279;52.426;10.488;2023-07-09T00:40:26;1.60;;;1.50;;
61413;SDS011;47279;52.426;10.488;2023-07-09T00:42:53;1.35;;;1.25;;
61413;SDS011;47279;52.426;10.488;2023-07-09T00:45:20;1.67;;;1.35;;
61413;SDS011;47279;52.426;10.488;2023-07-09T00:47:51;1.45;;;1.35;;
61413;SDS011;47279;52.426;10.488;2023-07-09T00:50:35;1.48;;;1.38;;
61413;SDS011;47279;52.426;10.488;2023-07-09T00:53:03;1.50;;;1.40;;
61413;SDS011;47279;52.426;10.488;2023-07-09T00:55:32;1.45;;;1.35;;
61413;SDS011;47279;52.426;10.488;2023-07-09T01:00:30;1.70;;;1.60;;
61413;SDS011;47279;52.426;10.488;2023-07-09T01:03:00;1.67;;;1.58;;
61413;SDS011;47279;52.426;10.488;2023-07-09T01:05:27;1.42;;;1.30;;
61413;SDS011;47279;52.426;10.488;2023-07-09T01:07:53;1.42;;;1.33;;
61413;SDS011;47279;52.426;10.488;2023-07-09T01:10:19;1.60;;;1.50;;
61413;SDS011;47279;52.426;10.488;2023-07-09T01:12:45;1.60;;;1.50;;
61413;SDS011;47279;52.426;10.488;2023-07-09T01:15:13;1.60;;;1.50;;
61413;SDS011;47279;52.426;10.488;2023-07-09T01:17:40;1.88;;;1.77;;
61413;SDS011;47279;52.426;10.488;2023-07-09T01:20:09;1.60;;;1.50;;
61413;SDS011;47279;52.426;10.488;2023-07-09T01:22:39;1.75;;;1.63;;
61413;SDS011;47279;52.426;10.488;2023-07-09T01:25:06;1.65;;;1.55;;
61413;SDS011;47279;52.426;10.488;2023-07-09T01:27:36;1.40;;;1.30;;
61413;SDS011;47279;52.426;10.488;2023-07-09T01:30:06;1.50;;;1.40;;
61413;SDS011;47279;52.426;10.488;2023-07-09T01:32:32;2.00;;;1.80;;
61413;SDS011;47279;52.426;10.488;2023-07-09T01:34:59;1.33;;;1.23;;
61413;SDS011;47279;52.426;10.488;2023-07-09T01:37:30;1.60;;;1.50;;
61413;SDS011;47279;52.426;10.488;2023-07-09T01:39:56;1.63;;;1.48;;
61413;SDS011;47279;52.426;10.488;2023-07-09T01:42:23;2.47;;;1.55;;
61413;SDS011;47279;52.426;10.488;2023-07-09T01:44:50;1.50;;;1.40;;
61413;SDS011;47279;52.426;10.488;2023-07-09T01:47:16;1.65;;;1.55;;
61413;SDS011;47279;52.426;10.488;2023-07-09T01:49:43;1.67;;;1.58;;
61413;SDS011;47279;52.426;10.488;2023-07-09T01:52:11;1.52;;;1.42;;
61413;SDS011;47279;52.426;10.488;2023-07-09T01:54:38;1.60;;;1.50;;
61413;SDS011;47279;52.426;10.488;2023-07-09T01:59:39;1.80;;;1.70;;
61413;SDS011;47279;52.426;10.488;2023-07-09T02:02:06;1.50;;;1.40;;
61413;SDS011;47279;52.426;10.488;2023-07-09T02:04:32;1.58;;;1.48;;
61413;SDS011;47279;52.426;10.488;2023-07-09T02:06:58;1.73;;;1.63;;
61413;SDS011;47279;52.426;10.488;2023-07-09T02:09:24;2.72;;;1.80;;
61413;SDS011;47279;52.426;10.488;2023-07-09T02:11:50;1.83;;;1.70;;
61413;SDS011;47279;52.426;10.488;2023-07-09T02:14:16;1.98;;;1.88;;
61413;SDS011;47279;52.426;10.488;2023-07-09T02:16:42;1.95;;;1.80;;
61413;SDS011;47279;52.426;10.488;2023-07-09T02:19:08;1.70;;;1.60;;
61413;SDS011;47279;52.426;10.488;2023-07-09T02:21:34;1.85;;;1.70;;
61413;SDS011;47279;52.426;10.488;2023-07-09T02:24:00;1.63;;;1.52;;
61413;SDS011;47279;52.426;10.488;2023-07-09T02:26:27;1.83;;;1.73;;
61413;SDS011;47279;52.426;10.488;2023-07-09T02:28:53;1.95;;;1.75;;
61413;SDS011;47279;52.426;10.488;2023-07-09T02:31:19;1.70;;;1.60;;
61413;SDS011;47279;52.426;10.488;2023-07-09T02:33:44;1.70;;;1.55;;
61413;SDS011;47279;52.426;10.488;2023-07-09T02:36:10;1.63;;;1.50;;
61413;SDS011;47279;52.426;10.488;2023-07-09T02:38:36;1.65;;;1.55;;
61413;SDS011;47279;52.426;10.488;2023-07-09T02:41:02;1.80;;;1.70;;
61413;SDS011;47279;52.426;10.488;2023-07-09T02:43:28;2.08;;;1.75;;
61413;SDS011;47279;52.426;10.488;2023-07-09T02:45:54;1.83;;;1.48;;
61413;SDS011;47279;52.426;10.488;2023-07-09T02:48:20;1.42;;;1.33;;
61413;SDS011;47279;52.426;10.488;2023-07-09T02:50:46;1.70;;;1.60;;
61413;SDS011;47279;52.426;10.488;2023-07-09T02:53:12;1.80;;;1.60;;
61413;SDS011;47279;52.426;10.488;2023-07-09T02:55:37;1.90;;;1.70;;
61413;SDS011;47279;52.426;10.488;2023-07-09T02:58:03;1.70;;;1.60;;
61413;SDS011;47279;52.426;10.488;2023-07-09T03:00:29;1.85;;;1.70;;
61413;SDS011;47279;52.426;10.488;2023-07-09T03:02:55;2.30;;;1.80;;
61413;SDS011;47279;52.426;10.488;2023-07-09T03:05:21;2.00;;;1.80;;
61413;SDS011;47279;52.426;10.488;2023-07-09T03:07:47;1.60;;;1.50;;
61413;SDS011;47279;52.426;10.488;2023-07-09T03:10:13;1.95;;;1.80;;
61413;SDS011;47279;52.426;10.488;2023-07-09T03:12:39;1.88;;;1.77;;
61413;SDS011;47279;52.426;10.488;2023-07-09T03:15:05;2.05;;;1.85;;
61413;SDS011;47279;52.426;10.488;2023-07-09T03:17:31;1.80;;;1.70;;
61413;SDS011;47279;52.426;10.488;2023-07-09T03:19:57;1.77;;;1.67;;
61413;SDS011;47279;52.426;10.488;2023-07-09T03:22:23;1.73;;;1.63;;
61413;SDS011;47279;52.426;10.488;2023-07-09T03:24:49;1.90;;;1.80;;
61413;SDS011;47279;52.426;10.488;2023-07-09T03:27:15;2.10;;;1.80;;
61413;SDS011;47279;52.426;10.488;2023-07-09T03:29:41;1.90;;;1.70;;
61413;SDS011;47279;52.426;10.488;2023-07-09T03:32:07;2.67;;;1.80;;
61413;SDS011;47279;52.426;10.488;2023-07-09T03:34:33;2.08;;;1.67;;
61413;SDS011;47279;52.426;10.488;2023-07-09T03:36:59;1.70;;;1.60;;
61413;SDS011;47279;52.426;10.488;2023-07-09T03:39:24;1.80;;;1.70;;
61413;SDS011;47279;52.426;10.488;2023-07-09T03:41:50;1.95;;;1.85;;
61413;SDS011;47279;52.426;10.488;2023-07-09T03:44:16;1.80;;;1.70;;
61413;SDS011;47279;52.426;10.488;2023-07-09T03:46:42;2.13;;;1.95;;
61413;SDS011;47279;52.426;10.488;2023-07-09T03:49:08;1.95;;;1.80;;
61413;SDS011;47279;52.426;10.488;2023-07-09T03:51:34;2.00;;;1.80;;
61413;SDS011;47279;52.426;10.488;2023-07-09T03:54:00;2.30;;;2.10;;
61413;SDS011;47279;52.426;10.488;2023-07-09T03:56:26;1.80;;;1.70;;
61413;SDS011;47279;52.426;10.488;2023-07-09T03:58:52;1.90;;;1.70;;
61413;SDS011;47279;52.426;10.488;2023-07-09T04:01:18;1.90;;;1.70;;
61413;SDS011;47279;52.426;10.488;2023-07-09T04:03:44;2.13;;;1.92;;
61413;SDS011;47279;52.426;10.488;2023-07-09T04:06:10;2.50;;;1.98;;
61413;SDS011;47279;52.426;10.488;2023-07-09T04:08:36;2.00;;;1.90;;
61413;SDS011;47279;52.426;10.488;2023-07-09T04:11:02;1.98;;;1.88;;
61413;SDS011;47279;52.426;10.488;2023-07-09T04:13:28;2.10;;;1.88;;
61413;SDS011;47279;52.426;10.488;2023-07-09T04:15:54;2.47;;;1.98;;
61413;SDS011;47279;52.426;10.488;2023-07-09T04:18:20;1.75;;;1.65;;
61413;SDS011;47279;52.426;10.488;2023-07-09T04:20:50;2.05;;;1.88;;
61413;SDS011;47279;52.426;10.488;2023-07-09T04:23:16;2.08;;;1.90;;
61413;SDS011;47279;52.426;10.488;2023-07-09T04:25:42;2.10;;;1.90;;
61413;SDS011;47279;52.426;10.488;2023-07-09T04:28:08;2.28;;;2.08;;
61413;SDS011;47279;52.426;10.488;2023-07-09T04:30:34;2.00;;;1.80;;
61413;SDS011;47279;52.426;10.488;2023-07-09T04:33:00;1.90;;;1.80;;
61413;SDS011;47279;52.426;10.488;2023-07-09T04:35:26;2.30;;;1.98;;
61413;SDS011;47279;52.426;10.488;2023-07-09T04:37:52;2.90;;;1.67;;
61413;SDS011;47279;52.426;10.488;2023-07-09T04:40:18;1.83;;;1.73;;
61413;SDS011;47279;52.426;10.488;2023-07-09T04:42:44;2.20;;;2.00;;
61413;SDS011;47279;52.426;10.488;2023-07-09T04:45:11;2.50;;;2.20;;
61413;SDS011;47279;52.426;10.488;2023-07-09T04:47:37;2.00;;;1.90;;
61413;SDS011;47279;52.426;10.488;2023-07-09T04:50:04;1.88;;;1.77;;
61413;SDS011;47279;52.426;10.488;2023-07-09T04:52:30;2.00;;;1.90;;
61413;SDS011;47279;52.426;10.488;2023-07-09T04:54:56;2.10;;;1.83;;
61413;SDS011;47279;52.426;10.488;2023-07-09T04:57:22;2.10;;;1.90;;
61413;SDS011;47279;52.426;10.488;2023-07-09T04:59:48;2.00;;;1.90;;
61413;SDS011;47279;52.426;10.488;2023-07-09T05:02:14;2.38;;;2.17;;
61413;SDS011;47279;52.426;10.488;2023-07-09T05:04:40;2.60;;;2.40;;
61413;SDS011;47279;52.426;10.488;2023-07-09T05:07:06;2.92;;;2.20;;
61413;SDS011;47279;52.426;10.488;2023-07-09T05:09:32;1.95;;;1.77;;
61413;SDS011;47279;52.426;10.488;2023-07-09T05:11:59;1.90;;;1.80;;
61413;SDS011;47279;52.426;10.488;2023-07-09T05:14:26;2.10;;;1.90;;
61413;SDS011;47279;52.426;10.488;2023-07-09T05:16:52;2.20;;;2.05;;
61413;SDS011;47279;52.426;10.488;2023-07-09T05:19:18;2.20;;;2.00;;
61413;SDS011;47279;52.426;10.488;2023-07-09T05:21:44;1.85;;;1.75;;
61413;SDS011;47279;52.426;10.488;2023-07-09T05:24:10;1.75;;;1.65;;
61413;SDS011;47279;52.426;10.488;2023-07-09T05:26:36;2.20;;;2.00;;
61413;SDS011;47279;52.426;10.488;2023-07-09T05:29:03;1.95;;;1.85;;
61413;SDS011;47279;52.426;10.488;2023-07-09T05:31:30;2.10;;;1.90;;
61413;SDS011;47279;52.426;10.488;2023-07-09T05:33:56;2.05;;;1.85;;
61413;SDS011;47279;52.426;10.488;2023-07-09T05:36:22;2.00;;;1.90;;
61413;SDS011;47279;52.426;10.488;2023-07-09T05:38:48;2.03;;;1.92;;
61413;SDS011;47279;52.426;10.488;2023-07-09T05:41:15;2.30;;;2.10;;
61413;SDS011;47279;52.426;10.488;2023-07-09T05:43:41;2.00;;;1.80;;
61413;SDS011;47279;52.426;10.488;2023-07-09T05:46:08;1.98;;;1.88;;
61413;SDS011;47279;52.426;10.488;2023-07-09T05:48:34;2.50;;;2.20;;
61413;SDS011;47279;52.426;10.488;2023-07-09T05:51:00;1.85;;;1.75;;
61413;SDS011;47279;52.426;10.488;2023-07-09T05:53:26;2.22;;;2.03;;
61413;SDS011;47279;52.426;10.488;2023-07-09T05:55:55;1.88;;;1.70;;
61413;SDS011;47279;52.426;10.488;2023-07-09T05:58:22;2.40;;;1.83;;
61413;SDS011;47279;52.426;10.488;2023-07-09T06:00:51;1.92;;;1.83;;
61413;SDS011;47279;52.426;10.488;2023-07-09T06:03:18;2.30;;;2.10;;
61413;SDS011;47279;52.426;10.488;2023-07-09T06:05:44;1.90;;;1.80;;
61413;SDS011;47279;52.426;10.488;2023-07-09T06:08:10;1.85;;;1.75;;
61413;SDS011;47279;52.426;10.488;2023-07-09T06:10:37;2.00;;;1.90;;
61413;SDS011;47279;52.426;10.488;2023-07-09T06:13:05;1.80;;;1.70;;
61413;SDS011;47279;52.426;10.488;2023-07-09T06:15:31;2.05;;;1.95;;
61413;SDS011;47279;52.426;10.488;2023-07-09T06:17:57;1.90;;;1.70;;
61413;SDS011;47279;52.426;10.488;2023-07-09T06:20:23;1.90;;;1.80;;
61413;SDS011;47279;52.426;10.488;2023-07-09T06:22:49;2.08;;;1.88;;
61413;SDS011;47279;52.426;10.488;2023-07-09T06:25:15;1.75;;;1.65;;
61413;SDS011;47279;52.426;10.488;2023-07-09T06:27:40;2.25;;;2.05;;
61413;SDS011;47279;52.426;10.488;2023-07-09T06:30:07;2.10;;;2.00;;
61413;SDS011;47279;52.426;10.488;2023-07-09T06:32:33;1.95;;;1.85;;
61413;SDS011;47279;52.426;10.488;2023-07-09T06:34:59;2.15;;;1.95;;
61413;SDS011;47279;52.426;10.488;2023-07-09T06:37:24;2.10;;;1.90;;
61413;SDS011;47279;52.426;10.488;2023-07-09T06:39:50;1.80;;;1.70;;
61413;SDS011;47279;52.426;10.488;2023-07-09T06:42:16;2.22;;;2.05;;
61413;SDS011;47279;52.426;10.488;2023-07-09T06:44:42;1.92;;;1.80;;
61413;SDS011;47279;52.426;10.488;2023-07-09T06:47:08;1.77;;;1.67;;
61413;SDS011;47279;52.426;10.488;2023-07-09T06:49:34;1.85;;;1.75;;
61413;SDS011;47279;52.426;10.488;2023-07-09T06:52:00;2.10;;;1.90;;
61413;SDS011;47279;52.426;10.488;2023-07-09T06:54:26;1.80;;;1.70;;
61413;SDS011;47279;52.426;10.488;2023-07-09T06:56:52;2.00;;;1.90;;
61413;SDS011;47279;52.426;10.488;2023-07-09T06:59:18;2.03;;;1.92;;
61413;SDS011;47279;52.426;10.488;2023-07-09T07:01:44;2.10;;;2.00;;
61413;SDS011;47279;52.426;10.488;2023-07-09T07:04:10;1.83;;;1.73;;
61413;SDS011;47279;52.426;10.488;2023-07-09T07:06:36;2.30;;;2.10;;
61413;SDS011;47279;52.426;10.488;2023-07-09T07:09:02;2.00;;;1.90;;
61413;SDS011;47279;52.426;10.488;2023-07-09T07:11:28;2.00;;;1.80;;
61413;SDS011;47279;52.426;10.488;2023-07-09T07:13:55;2.20;;;2.00;;
61413;SDS011;47279;52.426;10.488;2023-07-09T07:16:22;1.80;;;1.70;;
61413;SDS011;47279;52.426;10.488;2023-07-09T07:18:48;1.70;;;1.60;;
61413;SDS011;47279;52.426;10.488;2023-07-09T07:21:15;1.75;;;1.65;;
61413;SDS011;47279;52.426;10.488;2023-07-09T07:23:41;1.90;;;1.80;;
61413;SDS011;47279;52.426;10.488;2023-07-09T07:26:07;2.22;;;2.03;;
61413;SDS011;47279;52.426;10.488;2023-07-09T07:28:34;2.08;;;1.60;;
61413;SDS011;47279;52.426;10.488;2023-07-09T07:31:01;1.70;;;1.60;;
61413;SDS011;47279;52.426;10.488;2023-07-09T07:33:27;1.77;;;1.67;;
61413;SDS011;47279;52.426;10.488;2023-07-09T07:35:53;1.70;;;1.60;;
61413;SDS011;47279;52.426;10.488;2023-07-09T07:38:19;1.88;;;1.75;;
61413;SDS011;47279;52.426;10.488;2023-07-09T07:40:45;1.95;;;1.80;;
61413;SDS011;47279;52.426;10.488;2023-07-09T07:43:11;2.00;;;1.90;;
61413;SDS011;47279;52.426;10.488;2023-07-09T07:45:41;1.83;;;1.70;;
61413;SDS011;47279;52.426;10.488;2023-07-09T07:48:07;1.65;;;1.55;;
61413;SDS011;47279;52.426;10.488;2023-07-09T07:50:33;1.80;;;1.70;;
61413;SDS011;47279;52.426;10.488;2023-07-09T07:52:58;2.00;;;1.90;;
61413;SDS011;47279;52.426;10.488;2023-07-09T07:55:24;2.28;;;1.83;;
61413;SDS011;47279;52.426;10.488;2023-07-09T07:57:50;1.65;;;1.55;;
61413;SDS011;47279;52.426;10.488;2023-07-09T08:00:16;1.80;;;1.60;;
61413;SDS011;47279;52.426;10.488;2023-07-09T08:02:42;2.13;;;2.00;;
61413;SDS011;47279;52.426;10.488;2023-07-09T08:05:08;1.70;;;1.60;;
61413;SDS011;47279;52.426;10.488;2023-07-09T08:07:34;1.70;;;1.60;;
61413;SDS011;47279;52.426;10.488;2023-07-09T08:10:00;1.60;;;1.50;;
61413;SDS011;47279;52.426;10.488;2023-07-09T08:12:26;2.00;;;1.90;;
61413;SDS011;47279;52.426;10.488;2023-07-09T08:14:52;1.70;;;1.60;;
61413;SDS011;47279;52.426;10.488;2023-07-09T08:17:18;1.90;;;1.80;;
61413;SDS011;47279;52.426;10.488;2023-07-09T08:19:45;1.50;;;1.40;;
61413;SDS011;47279;52.426;10.488;2023-07-09T08:22:11;1.60;;;1.50;;
61413;SDS011;47279;52.426;10.488;2023-07-09T08:24:37;2.10;;;2.00;;
61413;SDS011;47279;52.426;10.488;2023-07-09T08:27:05;2.05;;;1.90;;
61413;SDS011;47279;52.426;10.488;2023-07-09T08:29:31;1.70;;;1.60;;
61413;SDS011;47279;52.426;10.488;2023-07-09T08:31:57;1.77;;;1.67;;
61413;SDS011;47279;52.426;10.488;2023-07-09T08:34:23;1.60;;;1.50;;
61413;SDS011;47279;52.426;10.488;2023-07-09T08:36:49;1.88;;;1.77;;
61413;SDS011;47279;52.426;10.488;2023-07-09T08:39:15;1.70;;;1.60;;
61413;SDS011;47279;52.426;10.488;2023-07-09T08:41:56;1.67;;;1.58;;
61413;SDS011;47279;52.426;10.488;2023-07-09T08:49:33;1.80;;;1.70;;
61413;SDS011;47279;52.426;10.488;2023-07-09T08:52:00;1.70;;;1.60;;
61413;SDS011;47279;52.426;10.488;2023-07-09T08:54:31;1.73;;;1.63;;
61413;SDS011;47279;52.426;10.488;2023-07-09T08:56:58;1.75;;;1.65;;
61413;SDS011;47279;52.426;10.488;2023-07-09T08:59:25;1.73;;;1.63;;
61413;SDS011;47279;52.426;10.488;2023-07-09T09:01:52;1.83;;;1.73;;
61413;SDS011;47279;52.426;10.488;2023-07-09T09:04:29;1.65;;;1.55;;
61413;SDS011;47279;52.426;10.488;2023-07-09T09:06:59;1.73;;;1.63;;
61413;SDS011;47279;52.426;10.488;2023-07-09T09:14:26;1.70;;;1.60;;
61413;SDS011;47279;52.426;10.488;2023-07-09T09:16:52;1.83;;;1.73;;
61413;SDS011;47279;52.426;10.488;2023-07-09T09:19:23;1.70;;;1.60;;
61413;SDS011;47279;52.426;10.488;2023-07-09T09:21:53;1.80;;;1.70;;
61413;SDS011;47279;52.426;10.488;2023-07-09T09:24:26;1.77;;;1.67;;
61413;SDS011;47279;52.426;10.488;2023-07-09T09:26:53;1.80;;;1.70;;
61413;SDS011;47279;52.426;10.488;2023-07-09T09:29:23;1.83;;;1.73;;
61413;SDS011;47279;52.426;10.488;2023-07-09T09:31:50;1.70;;;1.60;;
61413;SDS011;47279;52.426;10.488;2023-07-09T09:34:24;1.60;;;1.50;;
61413;SDS011;47279;52.426;10.488;2023-07-09T09:36:50;1.73;;;1.63;;
61413;SDS011;47279;52.426;10.488;2023-07-09T09:39:17;1.70;;;1.60;;
61413;SDS011;47279;52.426;10.488;2023-07-09T09:41:43;1.58;;;1.48;;
61413;SDS011;47279;52.426;10.488;2023-07-09T09:44:19;1.60;;;1.50;;
61413;SDS011;47279;52.426;10.488;2023-07-09T09:46:47;1.48;;;1.38;;
61413;SDS011;47279;52.426;10.488;2023-07-09T09:49:14;1.67;;;1.58;;
61413;SDS011;47279;52.426;10.488;2023-07-09T09:51:40;1.63;;;1.52;;
61413;SDS011;47279;52.426;10.488;2023-07-09T09:54:11;1.52;;;1.42;;
61413;SDS011;47279;52.426;10.488;2023-07-09T09:56:39;1.60;;;1.50;;
61413;SDS011;47279;52.426;10.488;2023-07-09T09:59:13;1.55;;;1.45;;
61413;SDS011;47279;52.426;10.488;2023-07-09T10:01:41;1.55;;;1.45;;
61413;SDS011;47279;52.426;10.488;2023-07-09T10:04:08;1.60;;;1.50;;
61413;SDS011;47279;52.426;10.488;2023-07-09T10:06:37;1.70;;;1.60;;
61413;SDS011;47279;52.426;10.488;2023-07-09T10:09:16;1.52;;;1.42;;
61413;SDS011;47279;52.426;10.488;2023-07-09T10:11:47;1.80;;;1.70;;
61413;SDS011;47279;52.426;10.488;2023-07-09T10:14:22;1.70;;;1.60;;
61413;SDS011;47279;52.426;10.488;2023-07-09T10:16:50;1.70;;;1.60;;
61413;SDS011;47279;52.426;10.488;2023-07-09T10:19:19;1.98;;;1.88;;
61413;SDS011;47279;52.426;10.488;2023-07-09T10:27:08;1.60;;;1.50;;
61413;SDS011;47279;52.426;10.488;2023-07-09T10:39:38;1.60;;;1.50;;
61413;SDS011;47279;52.426;10.488;2023-07-09T10:42:08;1.80;;;1.70;;
61413;SDS011;47279;52.426;10.488;2023-07-09T10:44:38;1.50;;;1.40;;
61413;SDS011;47279;52.426;10.488;2023-07-09T10:47:10;1.58;;;1.48;;
61413;SDS011;47279;52.426;10.488;2023-07-09T10:49:38;1.80;;;1.70;;
61413;SDS011;47279;52.426;10.488;2023-07-09T10:52:13;2.30;;;1.90;;
61413;SDS011;47279;52.426;10.488;2023-07-09T10:54:51;1.90;;;1.80;;
61413;SDS011;47279;52.426;10.488;2023-07-09T10:59:52;1.80;;;1.70;;
61413;SDS011;47279;52.426;10.488;2023-07-09T11:02:22;1.70;;;1.60;;
61413;SDS011;47279;52.426;10.488;2023-07-09T11:04:56;1.58;;;1.48;;
61413;SDS011;47279;52.426;10.488;2023-07-09T11:07:27;1.88;;;1.77;;
61413;SDS011;47279;52.426;10.488;2023-07-09T11:09:56;1.60;;;1.50;;
61413;SDS011;47279;52.426;10.488;2023-07-09T11:12:25;1.60;;;1.50;;
61413;SDS011;47279;52.426;10.488;2023-07-09T11:14:55;1.50;;;1.40;;
61413;SDS011;47279;52.426;10.488;2023-07-09T11:17:22;1.70;;;1.60;;
61413;SDS011;47279;52.426;10.488;2023-07-09T11:19:58;1.48;;;1.38;;
61413;SDS011;47279;52.426;10.488;2023-07-09T11:22:35;1.67;;;1.58;;
61413;SDS011;47279;52.426;10.488;2023-07-09T11:25:06;1.63;;;1.52;;
61413;SDS011;47279;52.426;10.488;2023-07-09T11:27:33;1.70;;;1.60;;
61413;SDS011;47279;52.426;10.488;2023-07-09T11:30:03;1.60;;;1.50;;
61413;SDS011;47279;52.426;10.488;2023-07-09T11:32:30;1.70;;;1.60;;
61413;SDS011;47279;52.426;10.488;2023-07-09T11:35:06;1.80;;;1.70;;
61413;SDS011;47279;52.426;10.488;2023-07-09T11:37:32;1.70;;;1.60;;
61413;SDS011;47279;52.426;10.488;2023-07-09T11:40:04;1.52;;;1.42;;
61413;SDS011;47279;52.426;10.488;2023-07-09T11:42:33;1.52;;;1.42;;
61413;SDS011;47279;52.426;10.488;2023-07-09T11:45:06;1.60;;;1.50;;
61413;SDS011;47279;52.426;10.488;2023-07-09T11:47:44;1.60;;;1.50;;
61413;SDS011;47279;52.426;10.488;2023-07-09T11:50:31;1.70;;;1.60;;
61413;SDS011;47279;52.426;10.488;2023-07-09T11:52:59;1.52;;;1.42;;
61413;SDS011;47279;52.426;10.488;2023-07-09T11:57:53;1.90;;;1.80;;
61413;SDS011;47279;52.426;10.488;2023-07-09T12:00:19;1.85;;;1.75;;
61413;SDS011;47279;52.426;10.488;2023-07-09T12:02:45;2.00;;;1.60;;
61413;SDS011;47279;52.426;10.488;2023-07-09T12:05:19;1.60;;;1.50;;
61413;SDS011;47279;52.426;10.488;2023-07-09T12:07:46;1.45;;;1.35;;
61413;SDS011;47279;52.426;10.488;2023-07-09T12:10:17;1.70;;;1.60;;
61413;SDS011;47279;52.426;10.488;2023-07-09T12:12:44;1.60;;;1.50;;
61413;SDS011;47279;52.426;10.488;2023-07-09T12:15:21;1.70;;;1.60;;
61413;SDS011;47279;52.426;10.488;2023-07-09T12:17:54;1.60;;;1.50;;
61413;SDS011;47279;52.426;10.488;2023-07-09T12:20:21;1.63;;;1.52;;
61413;SDS011;47279;52.426;10.488;2023-07-09T12:22:47;1.50;;;1.40;;
61413;SDS011;47279;52.426;10.488;2023-07-09T12:25:21;1.55;;;1.45;;
61413;SDS011;47279;52.426;10.488;2023-07-09T12:27:47;1.77;;;1.67;;
61413;SDS011;47279;52.426;10.488;2023-07-09T12:30:13;1.73;;;1.63;;
61413;SDS011;47279;52.426;10.488;2023-07-09T12:32:43;2.25;;;2.05;;
61413;SDS011;47279;52.426;10.488;2023-07-09T12:35:12;1.70;;;1.60;;
61413;SDS011;47279;52.426;10.488;2023-07-09T12:37:38;1.60;;;1.50;;
61413;SDS011;47279;52.426;10.488;2023-07-09T12:40:04;1.58;;;1.48;;
61413;SDS011;47279;52.426;10.488;2023-07-09T12:42:36;1.50;;;1.40;;
61413;SDS011;47279;52.426;10.488;2023-07-09T12:45:02;1.65;;;1.55;;
61413;SDS011;47279;52.426;10.488;2023-07-09T12:47:29;1.50;;;1.40;;
61413;SDS011;47279;52.426;10.488;2023-07-09T12:50:02;1.60;;;1.50;;
61413;SDS011;47279;52.426;10.488;2023-07-09T12:52:29;1.60;;;1.50;;
61413;SDS011;47279;52.426;10.488;2023-07-09T12:54:59;1.60;;;1.50;;
61413;SDS011;47279;52.426;10.488;2023-07-09T12:57:25;1.58;;;1.48;;
61413;SDS011;47279;52.426;10.488;2023-07-09T12:59:51;1.65;;;1.55;;
61413;SDS011;47279;52.426;10.488;2023-07-09T13:02:20;1.70;;;1.60;;
61413;SDS011;47279;52.426;10.488;2023-07-09T13:04:47;1.70;;;1.60;;
61413;SDS011;47279;52.426;10.488;2023-07-09T13:07:31;1.73;;;1.63;;
61413;SDS011;47279;52.426;10.488;2023-07-09T13:10:04;1.40;;;1.30;;
61413;SDS011;47279;52.426;10.488;2023-07-09T13:12:32;1.50;;;1.40;;
61413;SDS011;47279;52.426;10.488;2023-07-09T13:14:58;1.40;;;1.30;;
61413;SDS011;47279;52.426;10.488;2023-07-09T13:17:27;1.67;;;1.58;;
61413;SDS011;47279;52.426;10.488;2023-07-09T13:19:53;1.55;;;1.45;;
61413;SDS011;47279;52.426;10.488;2023-07-09T13:22:21;1.60;;;1.50;;
61413;SDS011;47279;52.426;10.488;2023-07-09T13:24:47;1.50;;;1.40;;
61413;SDS011;47279;52.426;10.488;2023-07-09T13:27:14;1.42;;;1.33;;
61413;SDS011;47279;52.426;10.488;2023-07-09T13:29:40;1.60;;;1.50;;
61413;SDS011;47279;52.426;10.488;2023-07-09T13:32:10;1.75;;;1.65;;
61413;SDS011;47279;52.426;10.488;2023-07-09T13:34:37;1.50;;;1.40;;
61413;SDS011;47279;52.426;10.488;2023-07-09T13:37:04;1.77;;;1.67;;
61413;SDS011;47279;52.426;10.488;2023-07-09T13:39:30;1.63;;;1.52;;
61413;SDS011;47279;52.426;10.488;2023-07-09T13:41:56;1.50;;;1.40;;
61413;SDS011;47279;52.426;10.488;2023-07-09T13:44:24;1.60;;;1.50;;
61413;SDS011;47279;52.426;10.488;2023-07-09T13:46:50;1.60;;;1.50;;
61413;SDS011;47279;52.426;10.488;2023-07-09T13:49:17;1.60;;;1.50;;
61413;SDS011;47279;52.426;10.488;2023-07-09T13:51:45;1.63;;;1.52;;
61413;SDS011;47279;52.426;10.488;2023-07-09T13:54:18;1.60;;;1.50;;
61413;SDS011;47279;52.426;10.488;2023-07-09T13:56:45;1.70;;;1.60;;
61413;SDS011;47279;52.426;10.488;2023-07-09T13:59:12;1.58;;;1.48;;
61413;SDS011;47279;52.426;10.488;2023-07-09T14:01:38;1.45;;;1.35;;
61413;SDS011;47279;52.426;10.488;2023-07-09T14:04:04;1.90;;;1.55;;
61413;SDS011;47279;52.426;10.488;2023-07-09T14:06:30;1.48;;;1.38;;
61413;SDS011;47279;52.426;10.488;2023-07-09T14:08:56;1.50;;;1.40;;
61413;SDS011;47279;52.426;10.488;2023-07-09T14:11:22;1.80;;;1.70;;
61413;SDS011;47279;52.426;10.488;2023-07-09T14:13:48;1.60;;;1.50;;
61413;SDS011;47279;52.426;10.488;2023-07-09T14:16:14;1.70;;;1.30;;
61413;SDS011;47279;52.426;10.488;2023-07-09T14:18:40;1.70;;;1.58;;
61413;SDS011;47279;52.426;10.488;2023-07-09T14:21:13;1.50;;;1.40;;
61413;SDS011;47279;52.426;10.488;2023-07-09T14:23:39;1.60;;;1.50;;
61413;SDS011;47279;52.426;10.488;2023-07-09T14:26:05;1.55;;;1.45;;
61413;SDS011;47279;52.426;10.488;2023-07-09T14:28:31;1.80;;;1.70;;
61413;SDS011;47279;52.426;10.488;2023-07-09T14:30:57;1.60;;;1.50;;
61413;SDS011;47279;52.426;10.488;2023-07-09T14:33:23;1.65;;;1.55;;
61413;SDS011;47279;52.426;10.488;2023-07-09T14:35:49;1.70;;;1.60;;
61413;SDS011;47279;52.426;10.488;2023-07-09T14:40:42;1.55;;;1.45;;
61413;SDS011;47279;52.426;10.488;2023-07-09T14:43:08;1.77;;;1.67;;
61413;SDS011;47279;52.426;10.488;2023-07-09T14:45:36;1.63;;;1.52;;
61413;SDS011;47279;52.426;10.488;2023-07-09T14:48:05;1.60;;;1.50;;
61413;SDS011;47279;52.426;10.488;2023-07-09T14:50:34;1.70;;;1.48;;
61413;SDS011;47279;52.426;10.488;2023-07-09T14:52:59;1.30;;;1.20;;
61413;SDS011;47279;52.426;10.488;2023-07-09T14:55:25;1.70;;;1.60;;
61413;SDS011;47279;52.426;10.488;2023-07-09T14:57:53;1.70;;;1.60;;
61413;SDS011;47279;52.426;10.488;2023-07-09T15:00:20;1.65;;;1.55;;
61413;SDS011;47279;52.426;10.488;2023-07-09T15:02:46;1.50;;;1.40;;
61413;SDS011;47279;52.426;10.488;2023-07-09T15:05:20;1.58;;;1.48;;
61413;SDS011;47279;52.426;10.488;2023-07-09T15:07:46;1.52;;;1.42;;
61413;SDS011;47279;52.426;10.488;2023-07-09T15:10:13;1.50;;;1.40;;
61413;SDS011;47279;52.426;10.488;2023-07-09T15:12:39;1.63;;;1.52;;